sensor_id;sensor_type;location;lat;lon;timestamp;P1;durP1;ratioP1;P2;durP2;ratioP2
81648;SDS011;71057;51.436;6.768;2023-09-18T00:01:56;8.85;;;7.15;;
81648;SDS011;71057;51.436;6.768;2023-09-18T00:04:21;9.70;;;7.20;;
81648;SDS011;71057;51.436;6.768;2023-09-18T00:06:46;8.13;;;7.17;;
81648;SDS011;71057;51.436;6.768;2023-09-18T00:09:12;8.87;;;7.50;;
81648;SDS011;71057;51.436;6.768;2023-09-18T00:11:38;8.90;;;7.13;;
81648;SDS011;71057;51.436;6.768;2023-09-18T00:14:04;7.63;;;6.47;;
81648;SDS011;71057;51.436;6.768;2023-09-18T00:16:29;10.50;;;6.80;;
81648;SDS011;71057;51.436;6.768;2023-09-18T00:18:54;7.37;;;6.67;;
81648;SDS011;71057;51.436;6.768;2023-09-18T00:21:19;7.50;;;6.43;;
81648;SDS011;71057;51.436;6.768;2023-09-18T00:23:45;10.75;;;7.00;;
81648;SDS011;71057;51.436;6.768;2023-09-18T00:26:11;8.18;;;5.93;;
81648;SDS011;71057;51.436;6.768;2023-09-18T00:28:36;9.37;;;7.33;;
81648;SDS011;71057;51.436;6.768;2023-09-18T00:31:01;10.53;;;6.47;;
81648;SDS011;71057;51.436;6.768;2023-09-18T00:33:26;10.27;;;7.93;;
81648;SDS011;71057;51.436;6.768;2023-09-18T00:35:52;8.27;;;7.03;;
81648;SDS011;71057;51.436;6.768;2023-09-18T00:38:17;7.60;;;6.30;;
81648;SDS011;71057;51.436;6.768;2023-09-18T00:40:42;7.82;;;6.47;;
81648;SDS011;71057;51.436;6.768;2023-09-18T00:43:08;9.23;;;6.83;;
81648;SDS011;71057;51.436;6.768;2023-09-18T00:45:34;9.02;;;6.80;;
81648;SDS011;71057;51.436;6.768;2023-09-18T00:48:01;7.88;;;7.07;;
81648;SDS011;71057;51.436;6.768;2023-09-18T00:50:26;9.10;;;7.57;;
81648;SDS011;71057;51.436;6.768;2023-09-18T00:52:51;7.80;;;6.47;;
81648;SDS011;71057;51.436;6.768;2023-09-18T00:55:17;11.95;;;7.22;;
81648;SDS011;71057;51.436;6.768;2023-09-18T00:57:42;8.90;;;6.60;;
81648;SDS011;71057;51.436;6.768;2023-09-18T01:00:08;9.43;;;6.22;;
81648;SDS011;71057;51.436;6.768;2023-09-18T01:02:34;8.50;;;6.30;;
81648;SDS011;71057;51.436;6.768;2023-09-18T01:04:59;8.73;;;6.30;;
81648;SDS011;71057;51.436;6.768;2023-09-18T01:07:25;9.20;;;5.72;;
81648;SDS011;71057;51.436;6.768;2023-09-18T01:09:50;9.38;;;5.78;;
81648;SDS011;71057;51.436;6.768;2023-09-18T01:14:56;8.50;;;6.47;;
81648;SDS011;71057;51.436;6.768;2023-09-18T01:17:22;8.73;;;6.55;;
81648;SDS011;71057;51.436;6.768;2023-09-18T01:19:47;9.70;;;6.30;;
81648;SDS011;71057;51.436;6.768;2023-09-18T01:22:14;8.10;;;5.50;;
81648;SDS011;71057;51.436;6.768;2023-09-18T01:24:39;9.88;;;6.85;;
81648;SDS011;71057;51.436;6.768;2023-09-18T01:27:08;6.60;;;5.93;;
81648;SDS011;71057;51.436;6.768;2023-09-18T01:29:33;7.43;;;6.20;;
81648;SDS011;71057;51.436;6.768;2023-09-18T01:31:58;10.90;;;6.23;;
81648;SDS011;71057;51.436;6.768;2023-09-18T01:34:25;8.13;;;7.13;;
81648;SDS011;71057;51.436;6.768;2023-09-18T01:36:51;7.68;;;5.80;;
81648;SDS011;71057;51.436;6.768;2023-09-18T01:39:17;12.38;;;7.60;;
81648;SDS011;71057;51.436;6.768;2023-09-18T01:41:43;9.77;;;6.20;;
81648;SDS011;71057;51.436;6.768;2023-09-18T01:44:08;10.73;;;6.60;;
81648;SDS011;71057;51.436;6.768;2023-09-18T01:46:33;8.60;;;6.33;;
81648;SDS011;71057;51.436;6.768;2023-09-18T01:49:01;9.75;;;5.72;;
81648;SDS011;71057;51.436;6.768;2023-09-18T01:51:26;6.55;;;5.85;;
81648;SDS011;71057;51.436;6.768;2023-09-18T01:53:52;8.43;;;5.70;;
81648;SDS011;71057;51.436;6.768;2023-09-18T01:56:18;7.30;;;5.63;;
81648;SDS011;71057;51.436;6.768;2023-09-18T01:58:43;8.43;;;5.97;;
81648;SDS011;71057;51.436;6.768;2023-09-18T02:01:08;8.47;;;5.90;;
81648;SDS011;71057;51.436;6.768;2023-09-18T02:03:33;7.83;;;5.93;;
81648;SDS011;71057;51.436;6.768;2023-09-18T02:05:59;9.77;;;5.53;;
81648;SDS011;71057;51.436;6.768;2023-09-18T02:08:24;7.78;;;6.05;;
81648;SDS011;71057;51.436;6.768;2023-09-18T02:10:49;9.50;;;5.83;;
81648;SDS011;71057;51.436;6.768;2023-09-18T02:13:14;8.90;;;5.77;;
81648;SDS011;71057;51.436;6.768;2023-09-18T02:15:39;9.37;;;6.20;;
81648;SDS011;71057;51.436;6.768;2023-09-18T02:18:05;7.73;;;5.27;;
81648;SDS011;71057;51.436;6.768;2023-09-18T02:20:30;7.97;;;5.53;;
81648;SDS011;71057;51.436;6.768;2023-09-18T02:22:55;8.63;;;5.77;;
81648;SDS011;71057;51.436;6.768;2023-09-18T02:25:20;7.90;;;5.27;;
81648;SDS011;71057;51.436;6.768;2023-09-18T02:27:45;6.77;;;5.47;;
81648;SDS011;71057;51.436;6.768;2023-09-18T02:30:11;8.93;;;5.70;;
81648;SDS011;71057;51.436;6.768;2023-09-18T02:32:36;7.45;;;5.18;;
81648;SDS011;71057;51.436;6.768;2023-09-18T02:35:01;7.70;;;4.60;;
81648;SDS011;71057;51.436;6.768;2023-09-18T02:37:27;8.43;;;5.53;;
81648;SDS011;71057;51.436;6.768;2023-09-18T02:39:54;7.22;;;5.32;;
81648;SDS011;71057;51.436;6.768;2023-09-18T02:42:19;8.47;;;5.57;;
81648;SDS011;71057;51.436;6.768;2023-09-18T02:44:44;6.13;;;5.20;;
81648;SDS011;71057;51.436;6.768;2023-09-18T02:47:09;8.03;;;5.77;;
81648;SDS011;71057;51.436;6.768;2023-09-18T02:49:34;8.73;;;5.13;;
81648;SDS011;71057;51.436;6.768;2023-09-18T02:51:59;6.23;;;5.17;;
81648;SDS011;71057;51.436;6.768;2023-09-18T02:54:25;7.07;;;5.13;;
81648;SDS011;71057;51.436;6.768;2023-09-18T02:56:50;7.17;;;5.10;;
81648;SDS011;71057;51.436;6.768;2023-09-18T02:59:15;8.63;;;6.43;;
81648;SDS011;71057;51.436;6.768;2023-09-18T03:01:40;7.23;;;5.20;;
81648;SDS011;71057;51.436;6.768;2023-09-18T03:04:05;6.47;;;4.83;;
81648;SDS011;71057;51.436;6.768;2023-09-18T03:06:31;7.55;;;5.40;;
81648;SDS011;71057;51.436;6.768;2023-09-18T03:08:57;7.47;;;5.40;;
81648;SDS011;71057;51.436;6.768;2023-09-18T03:11:22;8.18;;;5.05;;
81648;SDS011;71057;51.436;6.768;2023-09-18T03:13:52;10.05;;;5.28;;
81648;SDS011;71057;51.436;6.768;2023-09-18T03:16:17;8.43;;;4.87;;
81648;SDS011;71057;51.436;6.768;2023-09-18T03:18:42;8.48;;;5.15;;
81648;SDS011;71057;51.436;6.768;2023-09-18T03:21:07;5.80;;;5.07;;
81648;SDS011;71057;51.436;6.768;2023-09-18T03:23:33;8.82;;;5.00;;
81648;SDS011;71057;51.436;6.768;2023-09-18T03:25:58;6.10;;;4.57;;
81648;SDS011;71057;51.436;6.768;2023-09-18T03:28:24;7.97;;;4.80;;
81648;SDS011;71057;51.436;6.768;2023-09-18T03:30:49;7.87;;;4.93;;
81648;SDS011;71057;51.436;6.768;2023-09-18T03:33:15;5.47;;;4.70;;
81648;SDS011;71057;51.436;6.768;2023-09-18T03:35:50;7.57;;;4.73;;
81648;SDS011;71057;51.436;6.768;2023-09-18T03:38:15;8.10;;;4.85;;
81648;SDS011;71057;51.436;6.768;2023-09-18T03:40:40;5.67;;;4.37;;
81648;SDS011;71057;51.436;6.768;2023-09-18T03:43:06;10.05;;;4.85;;
81648;SDS011;71057;51.436;6.768;2023-09-18T03:45:32;5.45;;;4.32;;
81648;SDS011;71057;51.436;6.768;2023-09-18T03:47:57;8.43;;;4.70;;
81648;SDS011;71057;51.436;6.768;2023-09-18T03:50:22;5.10;;;4.43;;
81648;SDS011;71057;51.436;6.768;2023-09-18T03:52:47;7.73;;;4.50;;
81648;SDS011;71057;51.436;6.768;2023-09-18T03:55:13;10.10;;;5.20;;
81648;SDS011;71057;51.436;6.768;2023-09-18T03:57:38;7.30;;;5.03;;
81648;SDS011;71057;51.436;6.768;2023-09-18T04:00:04;6.63;;;5.15;;
81648;SDS011;71057;51.436;6.768;2023-09-18T04:02:30;6.97;;;5.20;;
81648;SDS011;71057;51.436;6.768;2023-09-18T04:04:55;8.80;;;4.80;;
81648;SDS011;71057;51.436;6.768;2023-09-18T04:07:20;6.47;;;4.75;;
81648;SDS011;71057;51.436;6.768;2023-09-18T04:09:46;9.43;;;4.78;;
81648;SDS011;71057;51.436;6.768;2023-09-18T04:12:11;14.30;;;5.40;;
81648;SDS011;71057;51.436;6.768;2023-09-18T04:14:36;7.97;;;4.77;;
81648;SDS011;71057;51.436;6.768;2023-09-18T04:17:01;7.73;;;4.53;;
81648;SDS011;71057;51.436;6.768;2023-09-18T04:19:27;7.50;;;4.75;;
81648;SDS011;71057;51.436;6.768;2023-09-18T04:21:52;7.10;;;4.80;;
81648;SDS011;71057;51.436;6.768;2023-09-18T04:24:18;7.30;;;4.53;;
81648;SDS011;71057;51.436;6.768;2023-09-18T04:26:43;6.30;;;4.43;;
81648;SDS011;71057;51.436;6.768;2023-09-18T04:29:08;7.27;;;5.40;;
81648;SDS011;71057;51.436;6.768;2023-09-18T04:31:33;7.60;;;4.47;;
81648;SDS011;71057;51.436;6.768;2023-09-18T04:33:59;8.27;;;4.97;;
81648;SDS011;71057;51.436;6.768;2023-09-18T04:36:24;8.07;;;4.73;;
81648;SDS011;71057;51.436;6.768;2023-09-18T04:38:50;10.88;;;4.97;;
81648;SDS011;71057;51.436;6.768;2023-09-18T04:41:15;7.60;;;4.55;;
81648;SDS011;71057;51.436;6.768;2023-09-18T04:43:41;6.43;;;4.97;;
81648;SDS011;71057;51.436;6.768;2023-09-18T04:46:07;7.90;;;4.53;;
81648;SDS011;71057;51.436;6.768;2023-09-18T04:48:33;7.75;;;5.13;;
81648;SDS011;71057;51.436;6.768;2023-09-18T04:50:58;8.73;;;5.07;;
81648;SDS011;71057;51.436;6.768;2023-09-18T04:53:24;8.50;;;4.93;;
81648;SDS011;71057;51.436;6.768;2023-09-18T04:55:49;7.88;;;5.30;;
81648;SDS011;71057;51.436;6.768;2023-09-18T04:58:15;8.25;;;5.70;;
81648;SDS011;71057;51.436;6.768;2023-09-18T05:00:40;9.05;;;5.45;;
81648;SDS011;71057;51.436;6.768;2023-09-18T05:03:06;8.75;;;5.32;;
81648;SDS011;71057;51.436;6.768;2023-09-18T05:05:33;6.85;;;4.93;;
81648;SDS011;71057;51.436;6.768;2023-09-18T05:07:58;8.77;;;4.80;;
81648;SDS011;71057;51.436;6.768;2023-09-18T05:10:23;6.93;;;5.17;;
81648;SDS011;71057;51.436;6.768;2023-09-18T05:12:48;6.87;;;4.10;;
81648;SDS011;71057;51.436;6.768;2023-09-18T05:15:15;9.15;;;5.50;;
81648;SDS011;71057;51.436;6.768;2023-09-18T05:17:44;7.75;;;4.40;;
81648;SDS011;71057;51.436;6.768;2023-09-18T05:20:17;7.18;;;5.13;;
81648;SDS011;71057;51.436;6.768;2023-09-18T05:22:42;9.07;;;5.07;;
81648;SDS011;71057;51.436;6.768;2023-09-18T05:25:08;8.63;;;5.15;;
81648;SDS011;71057;51.436;6.768;2023-09-18T05:27:35;7.90;;;5.00;;
81648;SDS011;71057;51.436;6.768;2023-09-18T05:30:00;11.10;;;5.70;;
81648;SDS011;71057;51.436;6.768;2023-09-18T05:32:25;8.07;;;5.17;;
81648;SDS011;71057;51.436;6.768;2023-09-18T05:34:50;9.30;;;5.57;;
81648;SDS011;71057;51.436;6.768;2023-09-18T05:37:15;9.47;;;4.63;;
81648;SDS011;71057;51.436;6.768;2023-09-18T05:39:41;9.43;;;5.60;;
81648;SDS011;71057;51.436;6.768;2023-09-18T05:42:06;8.77;;;6.07;;
81648;SDS011;71057;51.436;6.768;2023-09-18T05:44:31;13.77;;;5.53;;
81648;SDS011;71057;51.436;6.768;2023-09-18T05:46:56;7.72;;;4.60;;
81648;SDS011;71057;51.436;6.768;2023-09-18T05:49:22;9.63;;;5.30;;
81648;SDS011;71057;51.436;6.768;2023-09-18T05:51:47;7.60;;;5.17;;
81648;SDS011;71057;51.436;6.768;2023-09-18T05:54:13;7.70;;;5.60;;
81648;SDS011;71057;51.436;6.768;2023-09-18T05:56:39;11.00;;;5.57;;
81648;SDS011;71057;51.436;6.768;2023-09-18T05:59:04;7.43;;;5.20;;
81648;SDS011;71057;51.436;6.768;2023-09-18T06:01:30;9.73;;;5.50;;
81648;SDS011;71057;51.436;6.768;2023-09-18T06:03:56;9.32;;;4.35;;
81648;SDS011;71057;51.436;6.768;2023-09-18T06:06:21;6.63;;;4.90;;
81648;SDS011;71057;51.436;6.768;2023-09-18T06:08:46;10.80;;;7.32;;
81648;SDS011;71057;51.436;6.768;2023-09-18T06:11:11;8.00;;;5.30;;
81648;SDS011;71057;51.436;6.768;2023-09-18T06:13:37;9.80;;;5.37;;
81648;SDS011;71057;51.436;6.768;2023-09-18T06:16:02;8.65;;;5.32;;
81648;SDS011;71057;51.436;6.768;2023-09-18T06:18:32;8.57;;;4.85;;
81648;SDS011;71057;51.436;6.768;2023-09-18T06:20:57;8.60;;;4.60;;
81648;SDS011;71057;51.436;6.768;2023-09-18T06:23:22;7.67;;;4.30;;
81648;SDS011;71057;51.436;6.768;2023-09-18T06:25:48;5.90;;;3.93;;
81648;SDS011;71057;51.436;6.768;2023-09-18T06:28:20;7.47;;;4.88;;
81648;SDS011;71057;51.436;6.768;2023-09-18T06:30:45;6.77;;;5.10;;
81648;SDS011;71057;51.436;6.768;2023-09-18T06:33:11;7.93;;;4.43;;
81648;SDS011;71057;51.436;6.768;2023-09-18T06:35:37;7.10;;;4.20;;
81648;SDS011;71057;51.436;6.768;2023-09-18T06:38:03;8.27;;;4.22;;
81648;SDS011;71057;51.436;6.768;2023-09-18T06:40:30;9.50;;;4.32;;
81648;SDS011;71057;51.436;6.768;2023-09-18T06:42:59;7.38;;;4.03;;
81648;SDS011;71057;51.436;6.768;2023-09-18T06:45:25;8.13;;;4.32;;
81648;SDS011;71057;51.436;6.768;2023-09-18T06:47:50;9.50;;;5.00;;
81648;SDS011;71057;51.436;6.768;2023-09-18T06:50:15;9.40;;;3.83;;
81648;SDS011;71057;51.436;6.768;2023-09-18T06:52:41;5.53;;;3.90;;
81648;SDS011;71057;51.436;6.768;2023-09-18T06:55:06;5.85;;;3.80;;
81648;SDS011;71057;51.436;6.768;2023-09-18T06:57:32;6.53;;;3.28;;
81648;SDS011;71057;51.436;6.768;2023-09-18T06:59:57;6.43;;;3.60;;
81648;SDS011;71057;51.436;6.768;2023-09-18T07:02:22;6.97;;;2.97;;
81648;SDS011;71057;51.436;6.768;2023-09-18T07:04:47;7.93;;;3.60;;
81648;SDS011;71057;51.436;6.768;2023-09-18T07:07:12;7.50;;;3.07;;
81648;SDS011;71057;51.436;6.768;2023-09-18T07:09:38;5.38;;;2.85;;
81648;SDS011;71057;51.436;6.768;2023-09-18T07:12:03;5.13;;;3.87;;
81648;SDS011;71057;51.436;6.768;2023-09-18T07:14:30;7.03;;;2.88;;
81648;SDS011;71057;51.436;6.768;2023-09-18T07:16:55;4.88;;;3.08;;
81648;SDS011;71057;51.436;6.768;2023-09-18T07:19:21;6.20;;;3.00;;
81648;SDS011;71057;51.436;6.768;2023-09-18T07:21:46;5.60;;;2.97;;
81648;SDS011;71057;51.436;6.768;2023-09-18T07:24:11;5.23;;;3.20;;
81648;SDS011;71057;51.436;6.768;2023-09-18T07:26:41;6.35;;;2.78;;
81648;SDS011;71057;51.436;6.768;2023-09-18T07:29:06;5.55;;;3.58;;
81648;SDS011;71057;51.436;6.768;2023-09-18T07:31:32;6.27;;;3.10;;
81648;SDS011;71057;51.436;6.768;2023-09-18T07:33:57;4.17;;;2.60;;
81648;SDS011;71057;51.436;6.768;2023-09-18T07:36:22;5.30;;;2.87;;
81648;SDS011;71057;51.436;6.768;2023-09-18T07:38:47;4.43;;;2.57;;
81648;SDS011;71057;51.436;6.768;2023-09-18T07:41:12;5.97;;;2.77;;
81648;SDS011;71057;51.436;6.768;2023-09-18T07:46:06;8.90;;;2.78;;
81648;SDS011;71057;51.436;6.768;2023-09-18T07:48:31;5.57;;;3.20;;
81648;SDS011;71057;51.436;6.768;2023-09-18T07:50:57;5.17;;;2.47;;
81648;SDS011;71057;51.436;6.768;2023-09-18T07:53:22;4.27;;;2.57;;
81648;SDS011;71057;51.436;6.768;2023-09-18T07:55:48;5.77;;;2.93;;
81648;SDS011;71057;51.436;6.768;2023-09-18T07:58:14;7.18;;;3.28;;
81648;SDS011;71057;51.436;6.768;2023-09-18T08:00:39;4.03;;;3.03;;
81648;SDS011;71057;51.436;6.768;2023-09-18T08:03:04;7.77;;;3.30;;
81648;SDS011;71057;51.436;6.768;2023-09-18T08:05:29;7.23;;;3.10;;
81648;SDS011;71057;51.436;6.768;2023-09-18T08:07:56;6.38;;;2.88;;
81648;SDS011;71057;51.436;6.768;2023-09-18T08:10:22;4.37;;;2.63;;
81648;SDS011;71057;51.436;6.768;2023-09-18T08:12:47;4.32;;;2.05;;
81648;SDS011;71057;51.436;6.768;2023-09-18T08:15:13;4.38;;;2.53;;
81648;SDS011;71057;51.436;6.768;2023-09-18T08:17:39;4.82;;;2.45;;
81648;SDS011;71057;51.436;6.768;2023-09-18T08:20:06;6.35;;;2.55;;
81648;SDS011;71057;51.436;6.768;2023-09-18T08:22:38;4.97;;;2.42;;
81648;SDS011;71057;51.436;6.768;2023-09-18T08:25:03;4.68;;;2.40;;
81648;SDS011;71057;51.436;6.768;2023-09-18T08:27:32;5.18;;;2.33;;
81648;SDS011;71057;51.436;6.768;2023-09-18T08:29:58;5.13;;;2.67;;
81648;SDS011;71057;51.436;6.768;2023-09-18T08:32:23;5.95;;;2.63;;
81648;SDS011;71057;51.436;6.768;2023-09-18T08:34:48;4.15;;;2.83;;
81648;SDS011;71057;51.436;6.768;2023-09-18T08:37:13;5.83;;;2.50;;
81648;SDS011;71057;51.436;6.768;2023-09-18T08:39:39;5.57;;;2.40;;
81648;SDS011;71057;51.436;6.768;2023-09-18T08:42:04;3.83;;;2.33;;
81648;SDS011;71057;51.436;6.768;2023-09-18T08:44:30;5.85;;;2.83;;
81648;SDS011;71057;51.436;6.768;2023-09-18T08:46:55;5.80;;;2.33;;
81648;SDS011;71057;51.436;6.768;2023-09-18T08:49:22;6.30;;;3.38;;
81648;SDS011;71057;51.436;6.768;2023-09-18T08:51:48;5.90;;;3.13;;
81648;SDS011;71057;51.436;6.768;2023-09-18T08:54:14;7.65;;;2.78;;
81648;SDS011;71057;51.436;6.768;2023-09-18T08:56:39;5.32;;;2.50;;
81648;SDS011;71057;51.436;6.768;2023-09-18T08:59:05;7.13;;;2.70;;
81648;SDS011;71057;51.436;6.768;2023-09-18T09:01:30;4.73;;;1.87;;
81648;SDS011;71057;51.436;6.768;2023-09-18T09:03:55;3.03;;;2.00;;
81648;SDS011;71057;51.436;6.768;2023-09-18T09:06:20;3.30;;;1.90;;
81648;SDS011;71057;51.436;6.768;2023-09-18T09:08:45;3.97;;;2.07;;
81648;SDS011;71057;51.436;6.768;2023-09-18T09:11:11;3.42;;;2.08;;
81648;SDS011;71057;51.436;6.768;2023-09-18T09:13:36;4.07;;;2.22;;
81648;SDS011;71057;51.436;6.768;2023-09-18T09:16:01;5.10;;;2.47;;
81648;SDS011;71057;51.436;6.768;2023-09-18T09:18:27;5.47;;;2.70;;
81648;SDS011;71057;51.436;6.768;2023-09-18T09:20:53;3.90;;;2.65;;
81648;SDS011;71057;51.436;6.768;2023-09-18T09:23:19;5.68;;;2.50;;
81648;SDS011;71057;51.436;6.768;2023-09-18T09:25:44;4.47;;;2.63;;
81648;SDS011;71057;51.436;6.768;2023-09-18T09:28:09;5.13;;;2.63;;
81648;SDS011;71057;51.436;6.768;2023-09-18T09:30:35;5.10;;;2.70;;
81648;SDS011;71057;51.436;6.768;2023-09-18T09:33:04;5.35;;;2.50;;
81648;SDS011;71057;51.436;6.768;2023-09-18T09:35:30;5.55;;;2.70;;
81648;SDS011;71057;51.436;6.768;2023-09-18T09:37:59;4.55;;;2.80;;
81648;SDS011;71057;51.436;6.768;2023-09-18T09:40:25;4.70;;;2.75;;
81648;SDS011;71057;51.436;6.768;2023-09-18T09:42:52;4.80;;;2.40;;
81648;SDS011;71057;51.436;6.768;2023-09-18T09:47:44;4.80;;;3.63;;
81648;SDS011;71057;51.436;6.768;2023-09-18T09:50:13;3.90;;;2.30;;
81648;SDS011;71057;51.436;6.768;2023-09-18T09:52:41;4.25;;;2.45;;
81648;SDS011;71057;51.436;6.768;2023-09-18T09:58:04;4.05;;;2.00;;
81648;SDS011;71057;51.436;6.768;2023-09-18T10:03:06;3.45;;;1.90;;
81648;SDS011;71057;51.436;6.768;2023-09-18T10:05:32;4.75;;;2.20;;
81648;SDS011;71057;51.436;6.768;2023-09-18T10:07:58;5.63;;;2.10;;
81648;SDS011;71057;51.436;6.768;2023-09-18T10:10:26;4.28;;;2.60;;
81648;SDS011;71057;51.436;6.768;2023-09-18T10:12:53;4.75;;;2.30;;
81648;SDS011;71057;51.436;6.768;2023-09-18T10:15:20;4.47;;;2.28;;
81648;SDS011;71057;51.436;6.768;2023-09-18T10:17:48;2.75;;;1.88;;
81648;SDS011;71057;51.436;6.768;2023-09-18T10:20:17;4.35;;;2.45;;
81648;SDS011;71057;51.436;6.768;2023-09-18T10:22:45;3.30;;;2.85;;
81648;SDS011;71057;51.436;6.768;2023-09-18T10:27:38;5.53;;;2.90;;
81648;SDS011;71057;51.436;6.768;2023-09-18T10:30:06;4.60;;;2.80;;
81648;SDS011;71057;51.436;6.768;2023-09-18T10:32:35;5.40;;;3.22;;
81648;SDS011;71057;51.436;6.768;2023-09-18T10:35:01;5.97;;;3.55;;
81648;SDS011;71057;51.436;6.768;2023-09-18T10:37:26;5.77;;;3.10;;
81648;SDS011;71057;51.436;6.768;2023-09-18T10:39:52;6.03;;;3.75;;
81648;SDS011;71057;51.436;6.768;2023-09-18T10:42:18;4.13;;;2.75;;
81648;SDS011;71057;51.436;6.768;2023-09-18T10:44:43;6.55;;;2.90;;
81648;SDS011;71057;51.436;6.768;2023-09-18T10:47:10;4.60;;;3.03;;
81648;SDS011;71057;51.436;6.768;2023-09-18T10:49:36;6.57;;;2.90;;
81648;SDS011;71057;51.436;6.768;2023-09-18T10:52:02;7.70;;;3.00;;
81648;SDS011;71057;51.436;6.768;2023-09-18T10:54:29;5.10;;;2.40;;
81648;SDS011;71057;51.436;6.768;2023-09-18T10:56:55;5.68;;;2.50;;
81648;SDS011;71057;51.436;6.768;2023-09-18T10:59:21;5.20;;;3.08;;
81648;SDS011;71057;51.436;6.768;2023-09-18T11:01:46;3.38;;;2.55;;
81648;SDS011;71057;51.436;6.768;2023-09-18T11:04:13;3.25;;;2.78;;
81648;SDS011;71057;51.436;6.768;2023-09-18T11:09:20;5.22;;;3.20;;
81648;SDS011;71057;51.436;6.768;2023-09-18T11:11:46;5.13;;;2.53;;
81648;SDS011;71057;51.436;6.768;2023-09-18T11:14:13;3.28;;;2.55;;
81648;SDS011;71057;51.436;6.768;2023-09-18T11:16:40;5.88;;;4.18;;
81648;SDS011;71057;51.436;6.768;2023-09-18T11:21:31;4.13;;;2.63;;
81648;SDS011;71057;51.436;6.768;2023-09-18T11:23:57;4.03;;;2.60;;
81648;SDS011;71057;51.436;6.768;2023-09-18T11:26:23;5.50;;;3.25;;
81648;SDS011;71057;51.436;6.768;2023-09-18T11:28:48;5.00;;;3.20;;
81648;SDS011;71057;51.436;6.768;2023-09-18T11:31:15;4.38;;;2.95;;
81648;SDS011;71057;51.436;6.768;2023-09-18T11:33:41;5.17;;;3.50;;
81648;SDS011;71057;51.436;6.768;2023-09-18T11:36:12;6.30;;;3.35;;
81648;SDS011;71057;51.436;6.768;2023-09-18T11:41:21;5.22;;;2.88;;
81648;SDS011;71057;51.436;6.768;2023-09-18T11:43:47;3.33;;;2.58;;
81648;SDS011;71057;51.436;6.768;2023-09-18T11:46:12;4.13;;;2.23;;
81648;SDS011;71057;51.436;6.768;2023-09-18T11:48:43;3.65;;;2.25;;
81648;SDS011;71057;51.436;6.768;2023-09-18T11:51:08;3.63;;;2.50;;
81648;SDS011;71057;51.436;6.768;2023-09-18T11:53:36;5.15;;;3.25;;
81648;SDS011;71057;51.436;6.768;2023-09-18T11:56:03;4.40;;;2.35;;
81648;SDS011;71057;51.436;6.768;2023-09-18T11:58:28;4.53;;;2.55;;
81648;SDS011;71057;51.436;6.768;2023-09-18T12:00:54;4.10;;;2.70;;
81648;SDS011;71057;51.436;6.768;2023-09-18T12:03:23;3.78;;;2.53;;
81648;SDS011;71057;51.436;6.768;2023-09-18T12:05:52;3.28;;;2.42;;
81648;SDS011;71057;51.436;6.768;2023-09-18T12:08:17;4.20;;;2.50;;
81648;SDS011;71057;51.436;6.768;2023-09-18T12:10:43;5.55;;;2.58;;
81648;SDS011;71057;51.436;6.768;2023-09-18T12:13:08;4.70;;;2.50;;
81648;SDS011;71057;51.436;6.768;2023-09-18T12:15:34;3.65;;;2.40;;
81648;SDS011;71057;51.436;6.768;2023-09-18T12:18:06;4.68;;;2.40;;
81648;SDS011;71057;51.436;6.768;2023-09-18T12:20:31;3.90;;;2.75;;
81648;SDS011;71057;51.436;6.768;2023-09-18T12:22:59;4.03;;;2.40;;
81648;SDS011;71057;51.436;6.768;2023-09-18T12:25:24;6.90;;;3.07;;
81648;SDS011;71057;51.436;6.768;2023-09-18T12:27:53;4.90;;;3.08;;
81648;SDS011;71057;51.436;6.768;2023-09-18T12:30:18;3.88;;;2.50;;
81648;SDS011;71057;51.436;6.768;2023-09-18T12:35:13;3.97;;;2.33;;
81648;SDS011;71057;51.436;6.768;2023-09-18T12:37:41;3.80;;;3.17;;
81648;SDS011;71057;51.436;6.768;2023-09-18T12:40:07;5.25;;;2.92;;
81648;SDS011;71057;51.436;6.768;2023-09-18T12:42:36;3.92;;;2.03;;
81648;SDS011;71057;51.436;6.768;2023-09-18T12:45:05;5.05;;;2.58;;
81648;SDS011;71057;51.436;6.768;2023-09-18T12:47:31;4.07;;;2.28;;
81648;SDS011;71057;51.436;6.768;2023-09-18T12:50:01;3.30;;;2.35;;
81648;SDS011;71057;51.436;6.768;2023-09-18T12:52:27;3.10;;;2.50;;
81648;SDS011;71057;51.436;6.768;2023-09-18T12:54:54;3.22;;;2.30;;
81648;SDS011;71057;51.436;6.768;2023-09-18T12:57:21;2.85;;;2.40;;
81648;SDS011;71057;51.436;6.768;2023-09-18T12:59:46;5.17;;;2.97;;
81648;SDS011;71057;51.436;6.768;2023-09-18T13:02:16;3.40;;;2.60;;
81648;SDS011;71057;51.436;6.768;2023-09-18T13:04:47;4.22;;;2.60;;
81648;SDS011;71057;51.436;6.768;2023-09-18T13:07:15;2.95;;;2.25;;
81648;SDS011;71057;51.436;6.768;2023-09-18T13:09:42;3.40;;;2.13;;
81648;SDS011;71057;51.436;6.768;2023-09-18T13:12:08;5.18;;;2.30;;
81648;SDS011;71057;51.436;6.768;2023-09-18T13:17:17;4.88;;;2.30;;
81648;SDS011;71057;51.436;6.768;2023-09-18T13:19:42;3.42;;;2.40;;
81648;SDS011;71057;51.436;6.768;2023-09-18T13:22:08;3.27;;;2.03;;
81648;SDS011;71057;51.436;6.768;2023-09-18T13:24:33;5.37;;;2.60;;
81648;SDS011;71057;51.436;6.768;2023-09-18T13:26:59;3.30;;;2.25;;
81648;SDS011;71057;51.436;6.768;2023-09-18T13:29:24;4.47;;;2.03;;
81648;SDS011;71057;51.436;6.768;2023-09-18T13:31:50;2.97;;;2.40;;
81648;SDS011;71057;51.436;6.768;2023-09-18T13:34:16;4.65;;;2.42;;
81648;SDS011;71057;51.436;6.768;2023-09-18T13:36:46;3.78;;;2.22;;
81648;SDS011;71057;51.436;6.768;2023-09-18T13:39:15;4.50;;;3.03;;
81648;SDS011;71057;51.436;6.768;2023-09-18T13:41:42;2.65;;;2.17;;
81648;SDS011;71057;51.436;6.768;2023-09-18T13:44:07;2.92;;;1.80;;
81648;SDS011;71057;51.436;6.768;2023-09-18T13:46:33;3.40;;;2.20;;
81648;SDS011;71057;51.436;6.768;2023-09-18T13:49:01;3.47;;;2.00;;
81648;SDS011;71057;51.436;6.768;2023-09-18T13:51:27;4.90;;;2.00;;
81648;SDS011;71057;51.436;6.768;2023-09-18T13:53:52;4.38;;;2.33;;
81648;SDS011;71057;51.436;6.768;2023-09-18T13:56:21;5.07;;;2.30;;
81648;SDS011;71057;51.436;6.768;2023-09-18T13:58:46;4.18;;;2.30;;
81648;SDS011;71057;51.436;6.768;2023-09-18T14:01:12;2.45;;;1.98;;
81648;SDS011;71057;51.436;6.768;2023-09-18T14:03:40;3.05;;;2.10;;
81648;SDS011;71057;51.436;6.768;2023-09-18T14:06:06;2.63;;;1.77;;
81648;SDS011;71057;51.436;6.768;2023-09-18T14:08:32;2.83;;;2.40;;
81648;SDS011;71057;51.436;6.768;2023-09-18T14:10:58;3.13;;;2.20;;
81648;SDS011;71057;51.436;6.768;2023-09-18T14:13:23;5.07;;;2.43;;
81648;SDS011;71057;51.436;6.768;2023-09-18T14:15:48;2.87;;;2.00;;
81648;SDS011;71057;51.436;6.768;2023-09-18T14:18:14;3.87;;;2.37;;
81648;SDS011;71057;51.436;6.768;2023-09-18T14:20:39;4.10;;;2.03;;
81648;SDS011;71057;51.436;6.768;2023-09-18T14:23:06;3.78;;;2.08;;
81648;SDS011;71057;51.436;6.768;2023-09-18T14:25:31;3.70;;;2.30;;
81648;SDS011;71057;51.436;6.768;2023-09-18T14:27:56;3.67;;;2.27;;
81648;SDS011;71057;51.436;6.768;2023-09-18T14:30:21;3.23;;;2.10;;
81648;SDS011;71057;51.436;6.768;2023-09-18T14:32:51;3.67;;;2.10;;
81648;SDS011;71057;51.436;6.768;2023-09-18T14:35:16;2.67;;;2.33;;
81648;SDS011;71057;51.436;6.768;2023-09-18T14:37:41;2.90;;;2.60;;
81648;SDS011;71057;51.436;6.768;2023-09-18T14:40:06;4.07;;;2.50;;
81648;SDS011;71057;51.436;6.768;2023-09-18T14:42:36;3.58;;;2.30;;
81648;SDS011;71057;51.436;6.768;2023-09-18T14:45:01;3.50;;;2.37;;
81648;SDS011;71057;51.436;6.768;2023-09-18T14:47:27;3.63;;;2.47;;
81648;SDS011;71057;51.436;6.768;2023-09-18T14:49:52;3.90;;;2.30;;
81648;SDS011;71057;51.436;6.768;2023-09-18T14:52:17;4.33;;;2.20;;
81648;SDS011;71057;51.436;6.768;2023-09-18T14:54:43;3.55;;;2.00;;
81648;SDS011;71057;51.436;6.768;2023-09-18T14:57:08;5.10;;;2.43;;
81648;SDS011;71057;51.436;6.768;2023-09-18T14:59:35;3.35;;;2.03;;
81648;SDS011;71057;51.436;6.768;2023-09-18T15:02:00;3.13;;;1.90;;
81648;SDS011;71057;51.436;6.768;2023-09-18T15:04:25;3.73;;;2.30;;
81648;SDS011;71057;51.436;6.768;2023-09-18T15:06:50;3.60;;;2.17;;
81648;SDS011;71057;51.436;6.768;2023-09-18T15:09:16;3.40;;;2.67;;